Terminal Aerodrome Forecast
Issued by NWS Jackson, KY

Home | Current Version | Previous Version | Text Only | Print | Product List | Glossary On
Versions: 1 2 3 4 5 6 7 8 9 10 11 12 13 14 15 16 17 18 19 20
000
FTUS43 KJKL 271100
TAFLOZ
TAF
KLOZ 271138Z 2712/2812 VRB05KT 3SM -SHSN BKN012 OVC020
      TEMPO 2712/2714 2SM -SHSN BKN007
     FM271400 34006KT P6SM VCSH BKN025
     FM271800 34005KT P6SM BKN035
     FM272200 33006KT P6SM SCT040 SCT060
     FM280400 36005KT P6SM BKN015=

USA.gov is the U.S. government's official web portal to all federal, state and local government web resources and services.